Time;durP1;ratioP1;P1;durP2;ratioP2;P2;SDS_P1;SDS_P2;PMS_P1;PMS_P2;Temp;Humidity;BMP_temperature;BMP_pressure;BME280_temperature;BME280_humidity;BME280_pressure;Samples;Min_cycle;Max_cycle;Signal;HPM_P1;HPM_P2
2022/07/22 00:00:09;;;;;;;6.93;2.17;;;16.80;99.90;;;;;;5075063;28;20029;-80
2022/07/22 00:02:35;;;;;;;5.50;2.05;;;16.80;99.90;;;;;;5074979;28;20078;-81
2022/07/22 00:05:00;;;;;;;7.22;2.00;;;16.80;99.90;;;;;;5073816;28;20028;-81
2022/07/22 00:07:26;;;;;;;8.20;2.28;;;16.90;99.90;;;;;;5074782;28;20112;-81
2022/07/22 00:09:51;;;;;;;7.70;2.17;;;16.90;99.90;;;;;;5057162;28;20033;-81
2022/07/22 00:12:17;;;;;;;12.25;2.20;;;16.90;99.90;;;;;;5056938;28;20029;-80
2022/07/22 00:14:43;;;;;;;8.77;1.65;;;16.90;99.90;;;;;;5056948;28;20029;-81
2022/07/22 00:17:08;;;;;;;9.68;1.73;;;16.90;99.90;;;;;;5056737;28;20433;-81
2022/07/22 00:19:35;;;;;;;8.95;2.05;;;16.90;99.90;;;;;;5074456;28;20028;-81
2022/07/22 00:22:00;;;;;;;7.40;2.38;;;16.90;99.90;;;;;;5040088;28;20408;-81
2022/07/22 00:24:26;;;;;;;10.27;2.28;;;16.90;99.90;;;;;;5056755;28;20029;-80
2022/07/22 00:26:52;;;;;;;9.30;2.30;;;16.90;99.90;;;;;;5074579;28;20032;-81
2022/07/22 00:29:17;;;;;;;11.40;2.25;;;16.90;99.90;;;;;;5056460;28;20397;-81
2022/07/22 00:31:43;;;;;;;8.63;2.40;;;16.90;99.90;;;;;;5072929;28;20115;-81
2022/07/22 00:34:08;;;;;;;8.70;2.05;;;16.90;99.90;;;;;;5072823;28;20029;-80
2022/07/22 00:36:34;;;;;;;7.40;2.15;;;16.90;99.90;;;;;;5068386;28;20476;-81
2022/07/22 00:39:00;;;;;;;8.68;2.30;;;16.90;99.90;;;;;;5089761;28;20029;-81
2022/07/22 00:41:25;;;;;;;7.60;1.73;;;16.90;99.90;;;;;;5055976;28;20020;-81
2022/07/22 00:44:05;;;;;;;8.90;2.33;;;16.90;99.90;;;;;;5056498;28;20028;-81
2022/07/22 00:46:32;;;;;;;10.45;2.42;;;16.90;99.90;;;;;;5074083;28;20016;-80
2022/07/22 00:48:58;;;;;;;8.65;2.20;;;16.90;99.90;;;;;;5056273;28;20033;-81
2022/07/22 00:51:26;;;;;;;7.50;2.10;;;16.90;99.90;;;;;;5073834;28;20039;-80
2022/07/22 00:53:53;;;;;;;6.85;1.90;;;16.90;99.90;;;;;;5073859;28;20028;-81
2022/07/22 00:56:19;;;;;;;7.80;2.08;;;16.90;99.90;;;;;;5055954;28;20053;-81
2022/07/22 00:58:46;;;;;;;8.18;1.95;;;16.90;99.90;;;;;;5073583;28;20032;-81
2022/07/22 01:01:13;;;;;;;9.02;2.38;;;16.90;99.90;;;;;;5055942;28;20029;-81
2022/07/22 01:03:39;;;;;;;8.75;2.25;;;16.90;99.90;;;;;;5055822;28;20048;-81
2022/07/22 01:06:05;;;;;;;8.52;1.95;;;16.90;99.90;;;;;;5074310;28;20024;-80
2022/07/22 01:08:32;;;;;;;7.45;1.75;;;16.90;99.90;;;;;;5055785;28;20036;-81
2022/07/22 01:11:12;;;;;;;8.23;2.38;;;16.90;99.90;;;;;;5073744;28;20028;-80
2022/07/22 01:13:38;;;;;;;11.55;1.98;;;16.90;99.90;;;;;;5073757;28;20020;-81
2022/07/22 01:16:04;;;;;;;6.22;2.28;;;16.90;99.90;;;;;;5073580;28;20028;-81
2022/07/22 01:18:30;;;;;;;11.25;2.53;;;16.90;99.90;;;;;;5055477;28;20361;-81
2022/07/22 01:20:56;;;;;;;6.82;1.90;;;16.90;99.90;;;;;;5073570;28;20063;-80
2022/07/22 01:23:22;;;;;;;7.65;1.88;;;16.90;99.90;;;;;;5073526;28;20380;-80
2022/07/22 01:25:47;;;;;;;13.15;3.15;;;16.90;99.90;;;;;;5073723;28;20055;-80
2022/07/22 01:28:13;;;;;;;7.93;2.13;;;16.90;99.90;;;;;;5055800;28;20055;-80
2022/07/22 01:30:39;;;;;;;7.75;2.00;;;16.90;99.90;;;;;;5055542;28;20494;-81
2022/07/22 01:33:04;;;;;;;7.65;2.38;;;16.90;99.90;;;;;;5073467;28;20032;-81
2022/07/22 01:35:30;;;;;;;5.57;1.90;;;16.90;99.90;;;;;;5073464;28;20155;-81
2022/07/22 01:37:56;;;;;;;6.22;1.95;;;16.90;99.90;;;;;;5055278;28;20027;-80
2022/07/22 01:40:21;;;;;;;10.38;2.28;;;16.90;99.90;;;;;;5055311;28;20051;-80
2022/07/22 01:42:47;;;;;;;9.20;2.10;;;16.90;99.90;;;;;;5073452;28;20025;-81
2022/07/22 01:45:13;;;;;;;7.05;2.28;;;16.90;99.90;;;;;;5073416;28;20025;-81
2022/07/22 01:47:38;;;;;;;8.00;2.30;;;16.90;99.90;;;;;;5073234;28;20469;-81
2022/07/22 01:50:07;;;;;;;7.88;2.10;;;16.90;99.90;;;;;;5055377;28;20028;-81
2022/07/22 01:52:32;;;;;;;5.28;1.58;;;16.80;99.90;;;;;;5073245;28;20024;-82
2022/07/22 01:54:58;;;;;;;7.28;2.05;;;16.80;99.90;;;;;;5055143;28;20075;-81
2022/07/22 01:57:24;;;;;;;9.00;2.20;;;16.80;99.90;;;;;;5055142;28;20035;-81
2022/07/22 01:59:50;;;;;;;7.55;1.90;;;16.80;99.90;;;;;;5072875;28;20103;-80
2022/07/22 02:02:15;;;;;;;7.97;2.05;;;16.80;99.90;;;;;;5073129;28;20036;-81
2022/07/22 02:04:41;;;;;;;11.45;2.22;;;16.80;99.90;;;;;;5073098;28;20029;-81
2022/07/22 02:07:07;;;;;;;10.52;2.70;;;16.80;99.90;;;;;;5073207;28;20021;-81
2022/07/22 02:09:32;;;;;;;7.28;2.17;;;16.80;99.90;;;;;;5073878;28;20029;-81
2022/07/22 02:11:58;;;;;;;8.90;2.70;;;16.80;99.90;;;;;;5059189;28;20052;-81
2022/07/22 02:14:23;;;;;;;4.63;2.08;;;16.80;99.90;;;;;;5059213;28;20024;-81
2022/07/22 02:16:49;;;;;;;9.80;2.60;;;16.70;99.90;;;;;;5059115;28;20047;-81
2022/07/22 02:19:14;;;;;;;10.95;2.08;;;16.70;99.90;;;;;;5076798;28;20032;-81
2022/07/22 02:21:40;;;;;;;10.70;2.33;;;16.70;99.90;;;;;;5059084;28;20549;-80
2022/07/22 02:24:06;;;;;;;10.82;2.13;;;16.70;99.90;;;;;;5058965;28;20032;-80
2022/07/22 02:26:31;;;;;;;9.32;2.78;;;16.70;99.90;;;;;;5059072;28;20039;-81
2022/07/22 02:28:57;;;;;;;9.00;2.00;;;16.70;99.90;;;;;;5076806;28;20122;-81
2022/07/22 02:31:23;;;;;;;12.23;2.10;;;16.70;99.90;;;;;;5058892;28;20116;-81
2022/07/22 02:33:48;;;;;;;9.85;1.90;;;16.70;99.90;;;;;;5076777;28;20037;-81
2022/07/22 02:36:14;;;;;;;8.52;1.58;;;16.60;99.90;;;;;;5058746;28;20493;-81
2022/07/22 02:38:41;;;;;;;6.68;1.98;;;16.60;99.90;;;;;;5058591;28;20064;-73
2022/07/22 02:41:07;;;;;;;5.70;1.95;;;16.60;99.90;;;;;;5075336;28;20027;-74
2022/07/22 02:43:32;;;;;;;7.40;2.22;;;16.70;99.90;;;;;;5076768;28;20012;-73
2022/07/22 02:45:58;;;;;;;5.40;2.15;;;16.60;99.90;;;;;;5076441;28;20481;-72
2022/07/22 02:48:24;;;;;;;6.63;2.03;;;16.60;99.90;;;;;;5076502;28;20021;-72
2022/07/22 02:50:49;;;;;;;11.57;2.40;;;16.60;99.90;;;;;;5076644;28;20033;-73
2022/07/22 02:53:15;;;;;;;7.75;2.33;;;16.60;99.90;;;;;;5076342;28;20040;-73
2022/07/22 02:55:41;;;;;;;9.63;1.85;;;16.60;99.90;;;;;;5076192;28;20431;-73
2022/07/22 02:58:08;;;;;;;12.52;1.98;;;16.60;99.90;;;;;;5076037;28;20100;-73
2022/07/22 03:00:35;;;;;;;8.32;1.60;;;16.60;99.90;;;;;;5058182;28;20074;-72
2022/07/22 03:03:00;;;;;;;5.93;1.50;;;16.60;99.90;;;;;;5076228;28;20025;-73
2022/07/22 03:05:26;;;;;;;5.00;1.70;;;16.60;99.90;;;;;;5076890;28;20115;-72
2022/07/22 03:07:51;;;;;;;11.65;2.15;;;16.60;99.90;;;;;;5076141;28;20090;-72
2022/07/22 03:10:17;;;;;;;5.82;1.85;;;16.60;99.90;;;;;;5076437;28;20028;-72
2022/07/22 03:12:43;;;;;;;7.68;1.70;;;16.60;99.90;;;;;;5076040;28;20031;-72
2022/07/22 03:15:09;;;;;;;5.80;1.73;;;16.60;99.90;;;;;;5076122;28;20020;-72
2022/07/22 03:17:36;;;;;;;6.15;1.42;;;16.60;99.90;;;;;;5057881;28;20021;-72
2022/07/22 03:20:09;;;;;;;6.95;1.80;;;16.60;99.90;;;;;;5075805;28;20021;-72
2022/07/22 03:22:36;;;;;;;4.70;1.40;;;16.60;99.90;;;;;;5076137;28;20377;-72
2022/07/22 03:25:02;;;;;;;6.20;1.60;;;16.60;99.90;;;;;;5076026;28;20077;-72
2022/07/22 03:27:28;;;;;;;9.43;1.63;;;16.60;99.90;;;;;;5075885;28;20029;-72
2022/07/22 03:29:53;;;;;;;8.00;1.40;;;16.60;99.90;;;;;;5075507;28;20020;-72
2022/07/22 03:32:19;;;;;;;6.88;1.52;;;16.60;99.90;;;;;;5075556;28;20035;-72
2022/07/22 03:34:45;;;;;;;7.20;1.83;;;16.50;99.90;;;;;;5075762;28;20025;-72
2022/07/22 03:37:10;;;;;;;7.32;1.98;;;16.60;99.90;;;;;;5076067;28;20518;-73
2022/07/22 03:39:36;;;;;;;11.05;1.25;;;16.60;99.90;;;;;;5057476;28;20028;-72
2022/07/22 03:42:02;;;;;;;6.68;1.80;;;16.60;99.90;;;;;;5075509;28;20028;-72
2022/07/22 03:44:28;;;;;;;7.63;1.52;;;16.70;99.90;;;;;;5075763;28;20028;-72
2022/07/22 03:46:54;;;;;;;4.20;1.00;;;16.70;99.90;;;;;;5075497;28;20115;-72
2022/07/22 03:49:20;;;;;;;9.35;1.70;;;16.60;99.90;;;;;;5057424;28;20033;-72
2022/07/22 03:51:46;;;;;;;3.65;1.15;;;16.70;99.90;;;;;;5075704;28;20103;-72
2022/07/22 03:54:11;;;;;;;4.88;1.52;;;16.70;99.90;;;;;;5075283;28;20067;-72
2022/07/22 03:56:37;;;;;;;4.50;1.20;;;16.70;99.90;;;;;;5075237;28;20056;-72
2022/07/22 03:59:03;;;;;;;7.10;1.85;;;16.70;99.90;;;;;;5075263;28;20472;-72
2022/07/22 04:01:28;;;;;;;5.68;2.03;;;16.70;99.90;;;;;;5057534;28;20343;-72
2022/07/22 04:03:54;;;;;;;5.85;1.88;;;16.80;99.90;;;;;;5074877;28;20115;-72
2022/07/22 04:06:20;;;;;;;5.90;1.60;;;16.70;99.90;;;;;;5074881;28;20016;-72
2022/07/22 04:08:45;;;;;;;5.43;1.75;;;16.80;99.90;;;;;;5074764;28;20103;-73
2022/07/22 04:11:11;;;;;;;8.50;1.55;;;16.80;99.90;;;;;;5074854;28;20042;-72
2022/07/22 04:13:37;;;;;;;3.83;1.20;;;16.80;99.90;;;;;;5074848;28;20028;-72
2022/07/22 04:16:02;;;;;;;3.85;1.55;;;16.80;99.90;;;;;;5074691;28;20033;-72
2022/07/22 04:18:30;;;;;;;4.28;1.48;;;16.80;99.90;;;;;;5057062;28;20060;-72
2022/07/22 04:20:56;;;;;;;7.53;2.35;;;16.80;99.90;;;;;;5071381;28;20427;-72
2022/07/22 04:23:22;;;;;;;6.43;1.90;;;16.80;99.90;;;;;;5053954;28;20056;-72
2022/07/22 04:25:48;;;;;;;6.20;1.67;;;16.80;99.90;;;;;;5052590;28;20025;-72
2022/07/22 04:28:13;;;;;;;5.45;1.98;;;16.90;99.90;;;;;;5053690;28;20029;-72
2022/07/22 04:30:39;;;;;;;9.68;2.20;;;16.80;99.90;;;;;;5054499;28;20067;-72
2022/07/22 04:33:04;;;;;;;9.25;2.08;;;16.90;99.90;;;;;;5053956;28;20056;-72
2022/07/22 04:35:30;;;;;;;4.65;1.52;;;16.90;99.90;;;;;;5053920;28;20029;-72
2022/07/22 04:37:56;;;;;;;5.45;1.67;;;16.90;99.90;;;;;;5054227;28;20021;-72
2022/07/22 04:40:21;;;;;;;10.02;2.30;;;17.00;99.90;;;;;;5054315;28;20079;-72
2022/07/22 04:42:47;;;;;;;9.73;2.08;;;17.00;99.90;;;;;;5054239;28;20108;-72
2022/07/22 04:45:12;;;;;;;7.13;2.45;;;17.00;99.90;;;;;;5053080;28;20100;-72
2022/07/22 04:47:38;;;;;;;4.93;2.15;;;17.00;99.90;;;;;;5054430;28;20025;-72
2022/07/22 04:50:04;;;;;;;4.03;1.88;;;17.10;99.90;;;;;;5054914;28;20419;-72
2022/07/22 04:52:30;;;;;;;5.80;1.55;;;17.10;99.90;;;;;;5069006;28;20107;-74
2022/07/22 04:54:58;;;;;;;5.40;2.38;;;17.10;99.90;;;;;;5070309;28;20514;-73
2022/07/22 04:57:25;;;;;;;6.20;1.92;;;17.10;99.90;;;;;;5067127;28;20170;-73
2022/07/22 04:59:51;;;;;;;8.02;2.53;;;17.20;99.90;;;;;;5069719;28;20036;-73
2022/07/22 05:02:16;;;;;;;8.45;2.53;;;17.20;99.90;;;;;;5069748;28;20384;-73
2022/07/22 05:04:42;;;;;;;5.90;1.98;;;17.20;99.90;;;;;;5072970;28;20060;-73
2022/07/22 05:07:07;;;;;;;7.60;2.25;;;17.20;99.90;;;;;;5055428;28;20028;-73
2022/07/22 05:09:33;;;;;;;7.28;2.20;;;17.30;99.90;;;;;;5072507;28;20037;-73
2022/07/22 05:11:59;;;;;;;5.95;2.42;;;17.30;99.90;;;;;;5073741;28;20032;-73
2022/07/22 05:14:25;;;;;;;9.68;1.67;;;17.30;99.90;;;;;;5073076;28;20027;-73
2022/07/22 05:16:50;;;;;;;6.60;1.63;;;17.40;99.90;;;;;;5072785;28;20078;-73
2022/07/22 05:19:16;;;;;;;6.32;1.52;;;17.30;99.90;;;;;;5054653;28;20024;-73
2022/07/22 05:21:41;;;;;;;5.07;1.58;;;17.30;99.90;;;;;;5073567;28;20078;-73
2022/07/22 05:24:07;;;;;;;5.93;1.00;;;17.40;99.90;;;;;;5072918;28;20024;-73
2022/07/22 05:26:33;;;;;;;3.03;1.20;;;17.30;99.90;;;;;;5055041;28;20349;-73
2022/07/22 05:28:59;;;;;;;6.10;1.20;;;17.30;99.90;;;;;;5055450;28;20103;-73
2022/07/22 05:31:24;;;;;;;7.88;1.30;;;17.40;99.90;;;;;;5073354;28;20032;-73
2022/07/22 05:33:51;;;;;;;5.10;1.33;;;17.40;99.80;;;;;;5073467;28;20036;-73
2022/07/22 05:36:17;;;;;;;5.15;1.00;;;17.40;99.80;;;;;;5073662;28;20028;-73
2022/07/22 05:38:42;;;;;;;6.75;1.90;;;17.40;99.80;;;;;;5073493;28;20048;-73
2022/07/22 05:41:08;;;;;;;5.45;1.10;;;17.50;99.70;;;;;;5073547;28;20492;-73
2022/07/22 05:43:34;;;;;;;4.57;1.15;;;17.50;99.70;;;;;;5073280;28;20442;-73
2022/07/22 05:45:59;;;;;;;4.43;1.50;;;17.60;99.60;;;;;;5072092;28;20043;-74
2022/07/22 05:48:25;;;;;;;4.95;1.00;;;17.50;99.50;;;;;;5055480;28;20036;-73
2022/07/22 05:50:50;;;;;;;3.97;0.90;;;17.60;99.40;;;;;;5055525;28;20024;-73
2022/07/22 05:53:16;;;;;;;6.95;1.30;;;17.60;99.30;;;;;;5073332;28;20054;-73
2022/07/22 05:55:42;;;;;;;5.68;1.20;;;17.70;99.20;;;;;;5072908;28;20454;-73
2022/07/22 05:58:08;;;;;;;4.55;1.30;;;17.70;99.10;;;;;;5073061;28;20412;-73
2022/07/22 06:00:34;;;;;;;6.18;1.23;;;17.70;99.00;;;;;;5055238;28;20074;-73
2022/07/22 06:03:00;;;;;;;2.80;1.00;;;17.70;98.90;;;;;;5073736;28;20028;-73
2022/07/22 06:05:25;;;;;;;5.40;1.02;;;17.80;98.80;;;;;;5073174;28;20073;-73
2022/07/22 06:07:51;;;;;;;8.02;0.90;;;17.80;98.70;;;;;;5072929;28;20036;-73
2022/07/22 06:10:17;;;;;;;5.05;1.02;;;17.90;98.70;;;;;;5073283;28;20096;-73
2022/07/22 06:12:42;;;;;;;5.00;1.08;;;17.90;98.60;;;;;;5072735;28;20457;-73
2022/07/22 06:15:08;;;;;;;3.92;1.00;;;17.90;98.40;;;;;;5072952;28;20535;-73
2022/07/22 06:17:34;;;;;;;6.75;1.30;;;17.90;98.40;;;;;;5054608;28;20029;-73
2022/07/22 06:19:59;;;;;;;5.97;1.10;;;18.00;98.30;;;;;;5054979;28;20051;-73
2022/07/22 06:22:25;;;;;;;4.95;1.00;;;18.00;98.20;;;;;;5072296;28;20487;-73
2022/07/22 06:24:51;;;;;;;5.85;1.00;;;18.10;98.10;;;;;;5072469;28;20033;-73
2022/07/22 06:27:16;;;;;;;5.78;0.95;;;18.10;98.10;;;;;;5072609;28;20024;-73
2022/07/22 06:29:42;;;;;;;4.40;1.02;;;18.20;98.00;;;;;;5072995;28;20103;-73
2022/07/22 06:32:08;;;;;;;6.80;1.15;;;18.20;97.90;;;;;;5072146;28;20100;-73
2022/07/22 06:34:33;;;;;;;6.13;1.00;;;18.20;97.70;;;;;;5071769;28;20484;-74
2022/07/22 06:36:59;;;;;;;3.45;0.80;;;18.30;97.70;;;;;;5053949;28;20200;-74
2022/07/22 06:39:25;;;;;;;5.53;0.90;;;18.30;97.60;;;;;;5072012;28;20039;-74
2022/07/22 06:41:51;;;;;;;2.45;1.05;;;18.30;97.40;;;;;;5073085;28;20040;-74
2022/07/22 06:44:16;;;;;;;3.40;0.90;;;18.40;97.30;;;;;;5072831;28;20025;-75
2022/07/22 06:46:42;;;;;;;3.65;0.88;;;18.30;97.20;;;;;;5072853;28;20056;-75
2022/07/22 06:49:08;;;;;;;3.08;1.00;;;18.30;97.20;;;;;;5073002;28;20032;-75
2022/07/22 06:51:34;;;;;;;4.45;0.75;;;18.30;97.30;;;;;;5072782;28;20052;-75
2022/07/22 06:54:00;;;;;;;3.75;0.73;;;18.30;97.20;;;;;;5072563;28;20438;-75
2022/07/22 06:56:26;;;;;;;3.60;0.70;;;18.30;97.20;;;;;;5074812;28;20123;-75
2022/07/22 06:58:51;;;;;;;1.77;0.60;;;18.40;97.20;;;;;;5075671;28;20111;-75
2022/07/22 07:01:17;;;;;;;2.67;0.80;;;18.50;97.20;;;;;;5075880;28;20040;-75
2022/07/22 07:03:43;;;;;;;3.08;0.63;;;18.50;97.10;;;;;;5076172;28;20069;-75
2022/07/22 07:06:11;;;;;;;6.10;0.60;;;18.50;97.20;;;;;;5075947;28;20025;-75
2022/07/22 07:08:40;;;;;;;2.25;0.75;;;18.60;96.90;;;;;;5076455;28;20177;-75
2022/07/22 07:11:06;;;;;;;2.33;0.70;;;18.60;96.80;;;;;;5075916;28;20461;-75
2022/07/22 07:13:32;;;;;;;5.20;0.70;;;18.70;96.70;;;;;;5076477;28;20036;-75
2022/07/22 07:15:58;;;;;;;5.15;0.90;;;18.70;96.60;;;;;;5074770;28;20031;-75
2022/07/22 07:18:24;;;;;;;4.13;0.70;;;18.80;96.50;;;;;;5075777;28;20028;-75
2022/07/22 07:20:49;;;;;;;4.65;0.70;;;18.90;96.40;;;;;;5075984;28;20029;-75
2022/07/22 07:23:15;;;;;;;9.00;0.80;;;18.90;96.10;;;;;;5075831;28;20548;-75
2022/07/22 07:25:41;;;;;;;3.20;0.60;;;19.00;96.00;;;;;;5075824;28;20032;-75
2022/07/22 07:28:07;;;;;;;2.83;0.65;;;19.10;95.70;;;;;;5057667;28;20029;-75
2022/07/22 07:30:33;;;;;;;4.15;0.70;;;19.10;95.50;;;;;;5075587;28;20048;-75
2022/07/22 07:33:00;;;;;;;2.55;0.73;;;19.20;95.30;;;;;;5058139;28;20358;-75
2022/07/22 07:35:26;;;;;;;2.60;0.57;;;19.30;95.10;;;;;;5075491;28;20028;-75
2022/07/22 07:37:53;;;;;;;5.72;0.80;;;19.30;94.90;;;;;;5075898;28;20032;-75
2022/07/22 07:40:18;;;;;;;3.08;0.65;;;19.40;94.80;;;;;;5075506;28;20020;-75
2022/07/22 07:42:44;;;;;;;2.78;0.63;;;19.40;94.70;;;;;;5075694;28;20112;-75
2022/07/22 07:45:10;;;;;;;3.22;0.80;;;19.50;94.50;;;;;;5075623;28;20449;-75
2022/07/22 07:47:36;;;;;;;2.65;0.70;;;19.50;94.30;;;;;;5075715;28;20032;-75
2022/07/22 07:50:07;;;;;;;5.57;0.77;;;19.60;94.20;;;;;;5075573;28;20028;-75
2022/07/22 07:52:40;;;;;;;4.05;0.57;;;19.60;94.10;;;;;;5075734;28;20318;-75
2022/07/22 07:55:07;;;;;;;3.70;0.75;;;19.70;93.90;;;;;;5075247;28;20021;-75
2022/07/22 07:57:33;;;;;;;2.72;0.60;;;19.70;93.80;;;;;;5075346;28;20040;-75
2022/07/22 07:59:59;;;;;;;6.30;1.00;;;19.80;93.70;;;;;;5073817;28;20353;-75
2022/07/22 08:02:24;;;;;;;4.18;0.65;;;19.90;93.50;;;;;;5075357;28;20028;-75
2022/07/22 08:04:50;;;;;;;4.15;0.77;;;19.90;93.30;;;;;;5075291;28;20467;-75
2022/07/22 08:07:16;;;;;;;9.35;0.93;;;19.90;93.20;;;;;;5073906;28;20027;-75
2022/07/22 08:09:41;;;;;;;2.72;0.80;;;20.00;93.10;;;;;;5057132;28;20028;-75
2022/07/22 08:12:07;;;;;;;3.47;0.90;;;20.00;93.00;;;;;;5056918;28;20028;-75
2022/07/22 08:14:33;;;;;;;3.22;0.70;;;20.10;92.90;;;;;;5074692;28;20035;-75
2022/07/22 08:16:58;;;;;;;4.00;0.60;;;20.20;93.10;;;;;;5074738;28;20056;-74
2022/07/22 08:19:24;;;;;;;5.65;0.50;;;20.20;92.60;;;;;;5074823;28;20254;-75
2022/07/22 08:21:50;;;;;;;3.25;0.50;;;20.30;92.40;;;;;;5074443;28;20078;-75
2022/07/22 08:24:16;;;;;;;3.05;0.90;;;20.40;92.30;;;;;;5074471;28;20419;-75
2022/07/22 08:26:41;;;;;;;3.45;0.75;;;20.40;92.10;;;;;;5074924;28;20033;-75
2022/07/22 08:29:09;;;;;;;3.85;0.70;;;20.50;91.90;;;;;;5056712;28;20112;-74
2022/07/22 08:31:35;;;;;;;3.00;0.47;;;20.60;91.70;;;;;;5074564;28;20090;-75
2022/07/22 08:34:02;;;;;;;6.15;0.80;;;20.70;91.60;;;;;;5056680;28;20038;-75
2022/07/22 08:36:29;;;;;;;3.40;0.77;;;20.70;91.60;;;;;;5074524;28;20028;-75
2022/07/22 08:38:55;;;;;;;4.40;0.90;;;20.80;91.10;;;;;;5074713;28;20028;-75
2022/07/22 08:41:22;;;;;;;5.90;0.70;;;20.80;91.00;;;;;;5074207;28;20032;-75
2022/07/22 08:43:48;;;;;;;2.83;0.60;;;20.90;90.90;;;;;;5074360;28;20473;-75
2022/07/22 08:46:14;;;;;;;2.83;0.65;;;20.90;90.80;;;;;;5074165;28;20044;-75
2022/07/22 08:48:40;;;;;;;2.15;0.60;;;21.00;90.60;;;;;;5073300;28;20046;-76
2022/07/22 08:51:06;;;;;;;2.90;0.63;;;21.00;90.50;;;;;;5074299;28;20056;-75
2022/07/22 08:53:32;;;;;;;2.75;0.75;;;21.10;90.40;;;;;;5074390;28;20036;-75
2022/07/22 08:55:58;;;;;;;3.22;0.80;;;21.10;90.20;;;;;;5073867;28;20041;-76
2022/07/22 08:58:25;;;;;;;4.95;0.60;;;21.20;90.00;;;;;;5073917;28;20051;-74
2022/07/22 09:01:13;;;;;;;6.13;0.73;;;21.30;90.00;;;;;;5055996;28;20027;-76
2022/07/22 09:03:47;;;;;;;3.80;0.70;;;21.30;89.50;;;;;;5073922;28;20526;-76
2022/07/22 09:06:12;;;;;;;4.55;1.05;;;21.40;89.30;;;;;;5073795;28;20163;-75
2022/07/22 09:09:01;;;;;;;4.85;0.80;;;21.40;89.00;;;;;;5073774;28;20528;-75
2022/07/22 09:11:29;;;;;;;1.67;0.60;;;21.40;88.40;;;;;;5073952;28;20085;-76
2022/07/22 09:13:56;;;;;;;3.53;0.90;;;21.50;88.30;;;;;;5074046;28;20027;-76
2022/07/22 09:16:47;;;;;;;4.28;0.60;;;21.50;88.30;;;;;;5073757;28;20074;-76
2022/07/22 09:19:14;;;;;;;1.92;0.55;;;21.50;87.90;;;;;;5073646;28;20100;-76
2022/07/22 09:21:47;;;;;;;4.40;1.13;;;21.50;87.60;;;;;;5073649;28;20017;-76
2022/07/22 09:24:33;;;;;;;3.78;0.80;;;21.60;87.20;;;;;;5073444;28;20025;-76
2022/07/22 09:26:59;;;;;;;4.70;0.85;;;21.50;86.70;;;;;;5073398;28;20024;-76
2022/07/22 09:29:24;;;;;;;3.42;0.80;;;21.50;86.70;;;;;;5073418;28;20115;-76
2022/07/22 09:31:52;;;;;;;7.70;0.80;;;21.60;86.50;;;;;;5073653;28;20024;-76
2022/07/22 09:34:29;;;;;;;3.40;0.82;;;21.60;86.40;;;;;;5073477;28;20033;-75
2022/07/22 09:36:59;;;;;;;1.35;0.52;;;21.50;86.30;;;;;;5073518;28;20017;-76
2022/07/22 09:39:26;;;;;;;3.88;0.70;;;21.50;86.00;;;;;;5055580;28;20032;-76
2022/07/22 09:42:05;;;;;;;2.85;0.60;;;21.60;85.60;;;;;;5073318;28;20103;-76
2022/07/22 09:44:31;;;;;;;3.58;0.80;;;21.60;85.10;;;;;;5073444;28;20021;-76
2022/07/22 09:46:57;;;;;;;3.05;0.60;;;21.70;84.70;;;;;;5073359;28;20039;-76
2022/07/22 09:49:40;;;;;;;5.05;0.77;;;21.80;84.20;;;;;;5055278;28;20032;-76
2022/07/22 09:52:06;;;;;;;3.38;0.63;;;21.80;83.80;;;;;;5073046;28;20501;-76
2022/07/22 09:54:32;;;;;;;3.20;0.70;;;21.80;84.00;;;;;;5055109;28;20226;-75
2022/07/22 09:56:58;;;;;;;3.35;0.50;;;21.90;83.10;;;;;;5073054;28;20049;-74
2022/07/22 09:59:24;;;;;;;3.58;0.55;;;22.00;82.50;;;;;;5072959;28;20033;-75
2022/07/22 10:01:57;;;;;;;3.20;0.70;;;22.10;81.90;;;;;;5072875;28;20060;-76
2022/07/22 10:04:25;;;;;;;3.70;0.70;;;22.10;81.10;;;;;;5072923;28;20538;-76
2022/07/22 10:06:51;;;;;;;5.18;0.75;;;22.20;80.60;;;;;;5073140;28;20024;-76
2022/07/22 10:09:17;;;;;;;2.42;0.50;;;22.30;80.20;;;;;;5072756;28;20090;-76
2022/07/22 10:11:45;;;;;;;3.90;0.55;;;22.40;79.70;;;;;;5072538;28;20037;-76
2022/07/22 10:14:14;;;;;;;4.30;0.52;;;22.40;78.90;;;;;;5072890;28;20035;-74
2022/07/22 10:16:40;;;;;;;5.00;0.52;;;22.50;78.30;;;;;;5072709;28;20090;-75
2022/07/22 10:19:06;;;;;;;1.80;0.40;;;22.60;77.70;;;;;;5054829;28;20029;-75
2022/07/22 10:21:34;;;;;;;3.35;0.75;;;22.70;77.20;;;;;;5054725;28;20020;-75
2022/07/22 10:24:11;;;;;;;3.13;0.57;;;22.80;76.80;;;;;;5073035;28;20066;-76
2022/07/22 10:26:48;;;;;;;3.30;0.52;;;22.80;76.40;;;;;;5073009;28;20016;-75
2022/07/22 10:29:30;;;;;;;1.30;0.38;;;22.90;76.00;;;;;;5073027;28;20071;-75
2022/07/22 10:32:17;;;;;;;1.80;0.50;;;23.10;75.40;;;;;;5076153;28;20358;-74
2022/07/22 10:35:03;;;;;;;3.95;0.73;;;23.20;75.00;;;;;;5076750;28;20067;-75
2022/07/22 10:37:35;;;;;;;4.25;0.77;;;23.30;74.30;;;;;;5059463;28;20036;-75
2022/07/22 10:40:10;;;;;;;2.50;0.80;;;23.40;74.10;;;;;;5076599;28;20100;-75
2022/07/22 10:42:58;;;;;;;3.88;0.65;;;23.50;73.30;;;;;;5058886;28;20028;-75
2022/07/22 10:45:41;;;;;;;3.20;0.40;;;23.60;72.60;;;;;;5076467;28;20033;-75
2022/07/22 10:48:09;;;;;;;2.67;0.50;;;23.70;72.50;;;;;;5076676;28;20025;-75
2022/07/22 10:50:35;;;;;;;2.10;0.40;;;23.70;71.90;;;;;;5076299;28;20039;-75
2022/07/22 10:53:05;;;;;;;1.80;0.40;;;23.70;71.40;;;;;;5076380;28;20477;-75
2022/07/22 10:55:31;;;;;;;3.80;0.50;;;23.80;70.80;;;;;;5075976;28;20504;-76
2022/07/22 10:57:57;;;;;;;3.40;0.60;;;23.80;70.30;;;;;;5076396;28;20538;-75
2022/07/22 11:00:22;;;;;;;2.13;0.50;;;23.90;70.00;;;;;;5076307;28;20032;-75
2022/07/22 11:02:48;;;;;;;4.85;0.50;;;23.90;69.70;;;;;;5076012;28;20028;-76
2022/07/22 11:05:23;;;;;;;2.10;0.60;;;23.90;69.20;;;;;;5076441;28;20027;-75
2022/07/22 11:07:49;;;;;;;2.13;0.52;;;24.00;69.00;;;;;;5076045;28;20037;-74
2022/07/22 11:10:17;;;;;;;4.03;0.55;;;24.00;68.90;;;;;;5076328;28;20033;-74
2022/07/22 11:12:44;;;;;;;2.60;0.50;;;24.10;68.60;;;;;;5076157;28;20108;-75
2022/07/22 11:15:10;;;;;;;1.38;0.40;;;24.10;68.10;;;;;;5075898;28;20029;-75
2022/07/22 11:17:37;;;;;;;3.13;0.50;;;24.10;67.50;;;;;;5075867;28;20020;-74
2022/07/22 11:20:10;;;;;;;2.85;0.60;;;24.10;67.40;;;;;;5076107;28;20415;-75
2022/07/22 11:22:38;;;;;;;2.97;0.50;;;24.00;67.10;;;;;;5075901;28;20104;-76
2022/07/22 11:25:07;;;;;;;1.20;0.70;;;24.00;67.00;;;;;;5075981;28;20024;-75
2022/07/22 11:27:33;;;;;;;3.65;0.75;;;24.10;67.00;;;;;;5076181;28;20373;-75
2022/07/22 11:29:59;;;;;;;1.90;0.55;;;24.10;67.10;;;;;;5075978;28;20039;-75
2022/07/22 11:32:27;;;;;;;1.45;0.35;;;24.20;66.60;;;;;;5076111;28;20017;-76
2022/07/22 11:34:53;;;;;;;1.17;0.35;;;24.30;66.40;;;;;;5075519;28;20391;-76
2022/07/22 11:37:25;;;;;;;2.25;0.57;;;24.50;66.10;;;;;;5075653;28;20543;-75
2022/07/22 11:39:58;;;;;;;1.90;0.50;;;24.70;65.70;;;;;;5075625;28;20090;-76
2022/07/22 11:42:25;;;;;;;4.25;0.47;;;25.00;65.40;;;;;;5075331;28;20036;-75
2022/07/22 11:44:51;;;;;;;1.70;0.40;;;25.20;65.10;;;;;;5075778;28;20458;-75
2022/07/22 11:47:16;;;;;;;1.60;0.40;;;25.40;64.70;;;;;;5075452;28;20035;-76
2022/07/22 11:49:48;;;;;;;2.25;0.50;;;25.70;64.30;;;;;;5075566;28;20496;-75
2022/07/22 11:52:13;;;;;;;2.63;0.60;;;25.80;63.70;;;;;;5075371;28;20071;-75
2022/07/22 11:54:43;;;;;;;2.90;0.50;;;25.90;63.20;;;;;;5075335;28;20033;-75
2022/07/22 11:57:09;;;;;;;2.17;0.40;;;26.00;62.80;;;;;;5057148;28;20056;-75
2022/07/22 11:59:35;;;;;;;2.70;0.70;;;26.00;62.50;;;;;;5075147;28;20027;-75
2022/07/22 12:02:03;;;;;;;1.67;0.50;;;26.10;62.00;;;;;;5075116;28;20044;-76
2022/07/22 12:04:30;;;;;;;3.08;0.57;;;26.20;61.50;;;;;;5075313;28;20382;-75
2022/07/22 12:06:58;;;;;;;1.83;0.43;;;26.20;61.10;;;;;;5075337;28;20027;-75
2022/07/22 12:09:28;;;;;;;2.30;0.40;;;26.20;60.80;;;;;;5073952;28;20116;-76
2022/07/22 12:11:57;;;;;;;2.45;0.45;;;26.30;60.50;;;;;;5075299;28;20468;-76
2022/07/22 12:14:25;;;;;;;2.72;0.50;;;26.30;60.20;;;;;;5074811;28;20431;-76
2022/07/22 12:16:54;;;;;;;2.35;0.50;;;26.40;60.10;;;;;;5074791;28;20059;-75
2022/07/22 12:19:19;;;;;;;2.38;0.50;;;26.60;59.70;;;;;;5074805;28;20113;-76
2022/07/22 12:22:02;;;;;;;2.75;0.60;;;26.80;59.30;;;;;;5053240;28;20162;-76
2022/07/22 12:24:36;;;;;;;3.83;0.60;;;27.00;58.60;;;;;;5070884;28;20091;-74
2022/07/22 12:27:04;;;;;;;2.25;0.55;;;27.10;58.60;;;;;;5073576;28;20403;-75
2022/07/22 12:29:35;;;;;;;2.67;0.50;;;27.30;58.40;;;;;;5073836;28;20103;-75
2022/07/22 12:32:06;;;;;;;2.17;0.57;;;27.40;57.50;;;;;;5074504;28;20124;-75
2022/07/22 12:34:39;;;;;;;2.47;0.43;;;27.40;57.10;;;;;;5074291;28;20112;-75
2022/07/22 12:37:23;;;;;;;1.83;0.45;;;27.40;56.80;;;;;;5072470;28;20028;-75
2022/07/22 12:40:03;;;;;;;2.80;0.60;;;27.30;57.40;;;;;;5074208;28;20065;-75
2022/07/22 12:42:55;;;;;;;1.95;0.40;;;27.20;56.80;;;;;;5074272;28;20362;-75
2022/07/22 12:45:21;;;;;;;4.00;0.63;;;27.10;56.70;;;;;;5072443;28;20052;-75